sensor_id;sensor_type;location;lat;lon;timestamp;P1;durP1;ratioP1;P2;durP2;ratioP2
14736;SDS011;7459;53.590;10.062;2023-10-31T00:00:17;7.23;;;2.33;;
14736;SDS011;7459;53.590;10.062;2023-10-31T00:02:43;6.40;;;2.42;;
14736;SDS011;7459;53.590;10.062;2023-10-31T00:05:09;5.03;;;2.37;;
14736;SDS011;7459;53.590;10.062;2023-10-31T00:07:34;6.55;;;2.40;;
14736;SDS011;7459;53.590;10.062;2023-10-31T00:10:00;7.43;;;3.30;;
14736;SDS011;7459;53.590;10.062;2023-10-31T00:12:26;7.70;;;3.20;;
14736;SDS011;7459;53.590;10.062;2023-10-31T00:14:53;6.20;;;2.50;;
14736;SDS011;7459;53.590;10.062;2023-10-31T00:17:18;9.90;;;2.87;;
14736;SDS011;7459;53.590;10.062;2023-10-31T00:19:44;6.95;;;3.17;;
14736;SDS011;7459;53.590;10.062;2023-10-31T00:22:10;5.83;;;2.73;;
14736;SDS011;7459;53.590;10.062;2023-10-31T00:24:35;6.88;;;2.42;;
14736;SDS011;7459;53.590;10.062;2023-10-31T00:27:01;5.60;;;2.37;;
14736;SDS011;7459;53.590;10.062;2023-10-31T00:29:27;6.05;;;2.40;;
14736;SDS011;7459;53.590;10.062;2023-10-31T00:31:53;6.13;;;2.67;;
14736;SDS011;7459;53.590;10.062;2023-10-31T00:34:18;6.57;;;2.35;;
14736;SDS011;7459;53.590;10.062;2023-10-31T00:36:45;8.40;;;2.20;;
14736;SDS011;7459;53.590;10.062;2023-10-31T00:39:10;8.97;;;3.53;;
14736;SDS011;7459;53.590;10.062;2023-10-31T00:41:37;6.57;;;2.50;;
14736;SDS011;7459;53.590;10.062;2023-10-31T00:44:04;6.73;;;2.07;;
14736;SDS011;7459;53.590;10.062;2023-10-31T00:46:30;6.53;;;2.30;;
14736;SDS011;7459;53.590;10.062;2023-10-31T00:48:56;6.10;;;2.70;;
14736;SDS011;7459;53.590;10.062;2023-10-31T00:51:22;8.00;;;3.00;;
14736;SDS011;7459;53.590;10.062;2023-10-31T00:53:47;7.10;;;2.70;;
14736;SDS011;7459;53.590;10.062;2023-10-31T00:56:13;5.87;;;2.87;;
14736;SDS011;7459;53.590;10.062;2023-10-31T00:58:39;8.50;;;2.67;;
14736;SDS011;7459;53.590;10.062;2023-10-31T01:01:05;6.77;;;2.80;;
14736;SDS011;7459;53.590;10.062;2023-10-31T01:03:30;7.13;;;2.67;;
14736;SDS011;7459;53.590;10.062;2023-10-31T01:05:56;8.53;;;2.50;;
14736;SDS011;7459;53.590;10.062;2023-10-31T01:08:22;5.97;;;2.65;;
14736;SDS011;7459;53.590;10.062;2023-10-31T01:10:47;8.20;;;2.77;;
14736;SDS011;7459;53.590;10.062;2023-10-31T01:13:13;7.45;;;2.70;;
14736;SDS011;7459;53.590;10.062;2023-10-31T01:15:39;8.53;;;2.83;;
14736;SDS011;7459;53.590;10.062;2023-10-31T01:18:04;4.95;;;2.45;;
14736;SDS011;7459;53.590;10.062;2023-10-31T01:20:31;7.23;;;3.07;;
14736;SDS011;7459;53.590;10.062;2023-10-31T01:22:56;7.68;;;2.92;;
14736;SDS011;7459;53.590;10.062;2023-10-31T01:25:22;7.20;;;2.80;;
14736;SDS011;7459;53.590;10.062;2023-10-31T01:27:48;7.47;;;3.20;;
14736;SDS011;7459;53.590;10.062;2023-10-31T01:30:13;9.73;;;3.87;;
14736;SDS011;7459;53.590;10.062;2023-10-31T01:32:39;7.70;;;3.38;;
14736;SDS011;7459;53.590;10.062;2023-10-31T01:35:05;8.20;;;3.30;;
14736;SDS011;7459;53.590;10.062;2023-10-31T01:37:31;6.78;;;3.30;;
14736;SDS011;7459;53.590;10.062;2023-10-31T01:39:57;6.50;;;3.65;;
14736;SDS011;7459;53.590;10.062;2023-10-31T01:42:22;10.10;;;4.73;;
14736;SDS011;7459;53.590;10.062;2023-10-31T01:44:48;9.32;;;4.18;;
14736;SDS011;7459;53.590;10.062;2023-10-31T01:47:14;9.43;;;3.93;;
14736;SDS011;7459;53.590;10.062;2023-10-31T01:49:40;10.02;;;4.47;;
14736;SDS011;7459;53.590;10.062;2023-10-31T01:52:06;8.13;;;4.53;;
14736;SDS011;7459;53.590;10.062;2023-10-31T01:54:32;10.35;;;5.22;;
14736;SDS011;7459;53.590;10.062;2023-10-31T01:56:59;13.40;;;6.13;;
14736;SDS011;7459;53.590;10.062;2023-10-31T01:59:26;11.20;;;5.40;;
14736;SDS011;7459;53.590;10.062;2023-10-31T02:01:52;10.55;;;6.10;;
14736;SDS011;7459;53.590;10.062;2023-10-31T02:04:19;10.43;;;5.90;;
14736;SDS011;7459;53.590;10.062;2023-10-31T02:06:45;10.93;;;6.20;;
14736;SDS011;7459;53.590;10.062;2023-10-31T02:09:11;13.63;;;6.17;;
14736;SDS011;7459;53.590;10.062;2023-10-31T02:11:37;11.27;;;5.65;;
14736;SDS011;7459;53.590;10.062;2023-10-31T02:14:03;12.57;;;6.50;;
14736;SDS011;7459;53.590;10.062;2023-10-31T02:16:28;11.03;;;5.80;;
14736;SDS011;7459;53.590;10.062;2023-10-31T02:18:54;12.20;;;5.50;;
14736;SDS011;7459;53.590;10.062;2023-10-31T02:21:20;9.32;;;5.20;;
14736;SDS011;7459;53.590;10.062;2023-10-31T02:23:58;11.80;;;5.80;;
14736;SDS011;7459;53.590;10.062;2023-10-31T02:26:32;12.00;;;6.35;;
14736;SDS011;7459;53.590;10.062;2023-10-31T02:28:59;11.73;;;5.05;;
14736;SDS011;7459;53.590;10.062;2023-10-31T02:31:26;10.18;;;5.50;;
14736;SDS011;7459;53.590;10.062;2023-10-31T02:33:52;9.50;;;4.80;;
14736;SDS011;7459;53.590;10.062;2023-10-31T02:36:18;10.10;;;5.35;;
14736;SDS011;7459;53.590;10.062;2023-10-31T02:38:44;9.00;;;4.93;;
14736;SDS011;7459;53.590;10.062;2023-10-31T02:41:10;8.68;;;5.03;;
14736;SDS011;7459;53.590;10.062;2023-10-31T02:43:37;9.73;;;5.32;;
14736;SDS011;7459;53.590;10.062;2023-10-31T02:46:03;8.48;;;4.90;;
14736;SDS011;7459;53.590;10.062;2023-10-31T02:48:29;11.23;;;5.13;;
14736;SDS011;7459;53.590;10.062;2023-10-31T02:50:57;8.20;;;5.13;;
14736;SDS011;7459;53.590;10.062;2023-10-31T02:53:23;9.40;;;4.65;;
14736;SDS011;7459;53.590;10.062;2023-10-31T02:55:49;8.23;;;4.50;;
14736;SDS011;7459;53.590;10.062;2023-10-31T02:58:14;10.47;;;5.20;;
14736;SDS011;7459;53.590;10.062;2023-10-31T03:00:42;8.75;;;4.97;;
14736;SDS011;7459;53.590;10.062;2023-10-31T03:03:08;9.40;;;4.50;;
14736;SDS011;7459;53.590;10.062;2023-10-31T03:05:34;10.00;;;4.90;;
14736;SDS011;7459;53.590;10.062;2023-10-31T03:07:59;12.63;;;5.30;;
14736;SDS011;7459;53.590;10.062;2023-10-31T03:10:25;8.97;;;4.90;;
14736;SDS011;7459;53.590;10.062;2023-10-31T03:12:51;11.55;;;5.00;;
14736;SDS011;7459;53.590;10.062;2023-10-31T03:15:17;9.27;;;5.25;;
14736;SDS011;7459;53.590;10.062;2023-10-31T03:17:43;10.27;;;5.47;;
14736;SDS011;7459;53.590;10.062;2023-10-31T03:20:09;10.88;;;5.22;;
14736;SDS011;7459;53.590;10.062;2023-10-31T03:22:35;8.17;;;4.60;;
14736;SDS011;7459;53.590;10.062;2023-10-31T03:25:01;9.45;;;4.57;;
14736;SDS011;7459;53.590;10.062;2023-10-31T03:27:26;8.77;;;5.00;;
14736;SDS011;7459;53.590;10.062;2023-10-31T03:29:52;10.68;;;4.53;;
14736;SDS011;7459;53.590;10.062;2023-10-31T03:32:18;8.27;;;4.77;;
14736;SDS011;7459;53.590;10.062;2023-10-31T03:34:43;9.20;;;5.65;;
14736;SDS011;7459;53.590;10.062;2023-10-31T03:37:09;8.00;;;4.77;;
14736;SDS011;7459;53.590;10.062;2023-10-31T03:39:35;10.20;;;4.57;;
14736;SDS011;7459;53.590;10.062;2023-10-31T03:42:00;10.20;;;4.97;;
14736;SDS011;7459;53.590;10.062;2023-10-31T03:44:26;8.80;;;5.00;;
14736;SDS011;7459;53.590;10.062;2023-10-31T03:46:52;8.83;;;5.47;;
14736;SDS011;7459;53.590;10.062;2023-10-31T03:49:17;9.77;;;4.97;;
14736;SDS011;7459;53.590;10.062;2023-10-31T03:51:43;8.77;;;5.20;;
14736;SDS011;7459;53.590;10.062;2023-10-31T03:54:09;8.27;;;4.80;;
14736;SDS011;7459;53.590;10.062;2023-10-31T03:56:38;8.73;;;4.63;;
14736;SDS011;7459;53.590;10.062;2023-10-31T03:59:08;7.57;;;4.13;;
14736;SDS011;7459;53.590;10.062;2023-10-31T04:01:33;7.63;;;4.13;;
14736;SDS011;7459;53.590;10.062;2023-10-31T04:03:59;6.78;;;4.07;;
14736;SDS011;7459;53.590;10.062;2023-10-31T04:06:25;9.43;;;5.00;;
14736;SDS011;7459;53.590;10.062;2023-10-31T04:08:50;9.10;;;4.82;;
14736;SDS011;7459;53.590;10.062;2023-10-31T04:11:17;9.88;;;4.97;;
14736;SDS011;7459;53.590;10.062;2023-10-31T04:13:42;9.53;;;4.87;;
14736;SDS011;7459;53.590;10.062;2023-10-31T04:16:08;10.13;;;5.18;;
14736;SDS011;7459;53.590;10.062;2023-10-31T04:18:34;9.93;;;4.43;;
14736;SDS011;7459;53.590;10.062;2023-10-31T04:21:01;9.70;;;4.78;;
14736;SDS011;7459;53.590;10.062;2023-10-31T04:23:27;9.90;;;4.95;;
14736;SDS011;7459;53.590;10.062;2023-10-31T04:25:52;9.13;;;4.57;;
14736;SDS011;7459;53.590;10.062;2023-10-31T04:28:18;8.37;;;4.20;;
14736;SDS011;7459;53.590;10.062;2023-10-31T04:30:44;9.00;;;4.30;;
14736;SDS011;7459;53.590;10.062;2023-10-31T04:33:10;9.00;;;4.38;;
14736;SDS011;7459;53.590;10.062;2023-10-31T04:35:35;8.93;;;4.50;;
14736;SDS011;7459;53.590;10.062;2023-10-31T04:38:01;9.27;;;4.47;;
14736;SDS011;7459;53.590;10.062;2023-10-31T04:40:27;9.63;;;4.07;;
14736;SDS011;7459;53.590;10.062;2023-10-31T04:42:52;8.13;;;3.92;;
14736;SDS011;7459;53.590;10.062;2023-10-31T04:45:19;8.80;;;4.07;;
14736;SDS011;7459;53.590;10.062;2023-10-31T04:47:45;10.27;;;4.43;;
14736;SDS011;7459;53.590;10.062;2023-10-31T04:50:10;9.50;;;4.60;;
14736;SDS011;7459;53.590;10.062;2023-10-31T04:52:36;7.05;;;3.67;;
14736;SDS011;7459;53.590;10.062;2023-10-31T04:55:02;9.53;;;4.30;;
14736;SDS011;7459;53.590;10.062;2023-10-31T04:57:28;8.73;;;4.40;;
14736;SDS011;7459;53.590;10.062;2023-10-31T04:59:53;10.37;;;4.43;;
14736;SDS011;7459;53.590;10.062;2023-10-31T05:02:22;7.85;;;4.20;;
14736;SDS011;7459;53.590;10.062;2023-10-31T05:04:48;8.43;;;4.70;;
14736;SDS011;7459;53.590;10.062;2023-10-31T05:07:16;8.43;;;3.87;;
14736;SDS011;7459;53.590;10.062;2023-10-31T05:09:42;7.05;;;4.20;;
14736;SDS011;7459;53.590;10.062;2023-10-31T05:12:08;7.18;;;3.75;;
14736;SDS011;7459;53.590;10.062;2023-10-31T05:14:34;8.43;;;3.97;;
14736;SDS011;7459;53.590;10.062;2023-10-31T05:17:00;7.35;;;4.05;;
14736;SDS011;7459;53.590;10.062;2023-10-31T05:19:26;8.65;;;4.18;;
14736;SDS011;7459;53.590;10.062;2023-10-31T05:21:51;10.03;;;3.70;;
14736;SDS011;7459;53.590;10.062;2023-10-31T05:24:17;7.28;;;3.70;;
14736;SDS011;7459;53.590;10.062;2023-10-31T05:26:43;7.63;;;4.20;;
14736;SDS011;7459;53.590;10.062;2023-10-31T05:29:09;8.17;;;4.30;;
14736;SDS011;7459;53.590;10.062;2023-10-31T05:31:36;9.43;;;4.13;;
14736;SDS011;7459;53.590;10.062;2023-10-31T05:34:01;12.60;;;4.53;;
14736;SDS011;7459;53.590;10.062;2023-10-31T05:36:28;8.77;;;4.40;;
14736;SDS011;7459;53.590;10.062;2023-10-31T05:38:54;9.25;;;4.43;;
14736;SDS011;7459;53.590;10.062;2023-10-31T05:41:20;11.07;;;4.90;;
14736;SDS011;7459;53.590;10.062;2023-10-31T05:43:46;8.90;;;5.00;;
14736;SDS011;7459;53.590;10.062;2023-10-31T05:46:12;15.25;;;5.50;;
14736;SDS011;7459;53.590;10.062;2023-10-31T05:48:39;9.93;;;5.00;;
14736;SDS011;7459;53.590;10.062;2023-10-31T05:51:14;10.40;;;5.15;;
14736;SDS011;7459;53.590;10.062;2023-10-31T05:53:46;9.30;;;4.28;;
14736;SDS011;7459;53.590;10.062;2023-10-31T05:56:13;9.98;;;5.20;;
14736;SDS011;7459;53.590;10.062;2023-10-31T05:58:41;10.50;;;5.07;;
14736;SDS011;7459;53.590;10.062;2023-10-31T06:01:07;10.40;;;5.27;;
14736;SDS011;7459;53.590;10.062;2023-10-31T06:03:33;12.43;;;5.18;;
14736;SDS011;7459;53.590;10.062;2023-10-31T06:05:59;10.98;;;5.40;;
14736;SDS011;7459;53.590;10.062;2023-10-31T06:08:25;10.30;;;5.57;;
14736;SDS011;7459;53.590;10.062;2023-10-31T06:10:54;10.50;;;5.53;;
14736;SDS011;7459;53.590;10.062;2023-10-31T06:13:23;10.95;;;5.70;;
14736;SDS011;7459;53.590;10.062;2023-10-31T06:15:52;12.23;;;5.95;;
14736;SDS011;7459;53.590;10.062;2023-10-31T06:18:20;13.73;;;6.45;;
14736;SDS011;7459;53.590;10.062;2023-10-31T06:20:46;12.90;;;6.03;;
14736;SDS011;7459;53.590;10.062;2023-10-31T06:23:12;12.02;;;5.68;;
14736;SDS011;7459;53.590;10.062;2023-10-31T06:25:38;11.73;;;5.60;;
14736;SDS011;7459;53.590;10.062;2023-10-31T06:28:03;12.80;;;6.25;;
14736;SDS011;7459;53.590;10.062;2023-10-31T06:30:29;10.37;;;5.63;;
14736;SDS011;7459;53.590;10.062;2023-10-31T06:32:54;11.68;;;5.75;;
14736;SDS011;7459;53.590;10.062;2023-10-31T06:35:20;12.23;;;5.70;;
14736;SDS011;7459;53.590;10.062;2023-10-31T06:37:49;13.30;;;6.03;;
14736;SDS011;7459;53.590;10.062;2023-10-31T06:40:16;13.85;;;6.38;;
14736;SDS011;7459;53.590;10.062;2023-10-31T06:42:42;13.47;;;5.97;;
14736;SDS011;7459;53.590;10.062;2023-10-31T06:45:08;12.63;;;5.82;;
14736;SDS011;7459;53.590;10.062;2023-10-31T06:47:34;12.00;;;5.97;;
14736;SDS011;7459;53.590;10.062;2023-10-31T06:49:59;15.03;;;6.83;;
14736;SDS011;7459;53.590;10.062;2023-10-31T06:52:25;15.30;;;6.40;;
14736;SDS011;7459;53.590;10.062;2023-10-31T06:54:51;14.13;;;6.50;;
14736;SDS011;7459;53.590;10.062;2023-10-31T06:57:16;10.50;;;5.70;;
14736;SDS011;7459;53.590;10.062;2023-10-31T06:59:42;12.00;;;5.93;;
14736;SDS011;7459;53.590;10.062;2023-10-31T07:02:08;11.27;;;5.90;;
14736;SDS011;7459;53.590;10.062;2023-10-31T07:04:34;11.25;;;6.20;;
14736;SDS011;7459;53.590;10.062;2023-10-31T07:07:00;10.23;;;5.15;;
14736;SDS011;7459;53.590;10.062;2023-10-31T07:09:26;10.90;;;5.70;;
14736;SDS011;7459;53.590;10.062;2023-10-31T07:11:52;10.93;;;5.40;;
14736;SDS011;7459;53.590;10.062;2023-10-31T07:14:18;11.63;;;6.05;;
14736;SDS011;7459;53.590;10.062;2023-10-31T07:16:44;11.87;;;6.00;;
14736;SDS011;7459;53.590;10.062;2023-10-31T07:19:10;10.20;;;5.40;;
14736;SDS011;7459;53.590;10.062;2023-10-31T07:21:36;9.13;;;4.53;;
14736;SDS011;7459;53.590;10.062;2023-10-31T07:24:02;8.83;;;3.17;;
14736;SDS011;7459;53.590;10.062;2023-10-31T07:26:27;7.28;;;3.38;;
14736;SDS011;7459;53.590;10.062;2023-10-31T07:28:53;7.83;;;3.37;;
14736;SDS011;7459;53.590;10.062;2023-10-31T07:31:19;7.53;;;3.45;;
14736;SDS011;7459;53.590;10.062;2023-10-31T07:33:45;8.07;;;3.70;;
14736;SDS011;7459;53.590;10.062;2023-10-31T07:36:11;8.40;;;3.90;;
14736;SDS011;7459;53.590;10.062;2023-10-31T07:38:37;8.70;;;4.10;;
14736;SDS011;7459;53.590;10.062;2023-10-31T07:41:03;9.13;;;4.40;;
14736;SDS011;7459;53.590;10.062;2023-10-31T07:43:29;10.30;;;5.10;;
14736;SDS011;7459;53.590;10.062;2023-10-31T07:45:54;11.18;;;5.43;;
14736;SDS011;7459;53.590;10.062;2023-10-31T07:48:20;12.30;;;5.93;;
14736;SDS011;7459;53.590;10.062;2023-10-31T07:50:46;12.30;;;6.00;;
14736;SDS011;7459;53.590;10.062;2023-10-31T07:53:12;19.57;;;7.17;;
14736;SDS011;7459;53.590;10.062;2023-10-31T07:55:37;13.77;;;6.38;;
14736;SDS011;7459;53.590;10.062;2023-10-31T07:58:03;13.17;;;6.40;;
14736;SDS011;7459;53.590;10.062;2023-10-31T08:00:29;12.10;;;5.60;;
14736;SDS011;7459;53.590;10.062;2023-10-31T08:02:55;11.73;;;5.27;;
14736;SDS011;7459;53.590;10.062;2023-10-31T08:05:21;8.63;;;4.22;;
14736;SDS011;7459;53.590;10.062;2023-10-31T08:07:47;8.40;;;3.87;;
14736;SDS011;7459;53.590;10.062;2023-10-31T08:10:13;6.90;;;3.42;;
14736;SDS011;7459;53.590;10.062;2023-10-31T08:12:39;7.80;;;3.50;;
14736;SDS011;7459;53.590;10.062;2023-10-31T08:15:04;5.97;;;1.90;;
14736;SDS011;7459;53.590;10.062;2023-10-31T08:17:31;3.38;;;0.90;;
14736;SDS011;7459;53.590;10.062;2023-10-31T08:19:56;3.83;;;0.77;;
14736;SDS011;7459;53.590;10.062;2023-10-31T08:22:22;3.00;;;0.50;;
14736;SDS011;7459;53.590;10.062;2023-10-31T08:24:48;2.90;;;0.60;;
14736;SDS011;7459;53.590;10.062;2023-10-31T08:27:13;1.42;;;0.40;;
14736;SDS011;7459;53.590;10.062;2023-10-31T08:29:39;1.80;;;0.30;;
14736;SDS011;7459;53.590;10.062;2023-10-31T08:32:05;1.30;;;0.28;;
14736;SDS011;7459;53.590;10.062;2023-10-31T08:34:31;2.10;;;0.40;;
14736;SDS011;7459;53.590;10.062;2023-10-31T08:36:56;1.00;;;0.30;;
14736;SDS011;7459;53.590;10.062;2023-10-31T08:39:24;2.10;;;0.30;;
14736;SDS011;7459;53.590;10.062;2023-10-31T08:41:53;1.40;;;0.20;;
14736;SDS011;7459;53.590;10.062;2023-10-31T08:44:20;1.40;;;0.28;;
14736;SDS011;7459;53.590;10.062;2023-10-31T08:46:46;1.27;;;0.30;;
14736;SDS011;7459;53.590;10.062;2023-10-31T08:49:12;1.40;;;0.30;;
14736;SDS011;7459;53.590;10.062;2023-10-31T08:51:40;1.45;;;0.57;;
14736;SDS011;7459;53.590;10.062;2023-10-31T08:54:06;1.02;;;0.38;;
14736;SDS011;7459;53.590;10.062;2023-10-31T08:56:33;1.15;;;0.35;;
14736;SDS011;7459;53.590;10.062;2023-10-31T08:58:59;1.57;;;0.30;;
14736;SDS011;7459;53.590;10.062;2023-10-31T09:01:25;1.83;;;0.22;;
14736;SDS011;7459;53.590;10.062;2023-10-31T09:03:52;1.83;;;0.30;;
14736;SDS011;7459;53.590;10.062;2023-10-31T09:06:18;1.60;;;0.37;;
14736;SDS011;7459;53.590;10.062;2023-10-31T09:08:44;1.20;;;0.40;;
14736;SDS011;7459;53.590;10.062;2023-10-31T09:11:09;1.40;;;0.30;;
14736;SDS011;7459;53.590;10.062;2023-10-31T09:13:35;1.40;;;0.30;;
14736;SDS011;7459;53.590;10.062;2023-10-31T09:16:04;1.37;;;0.40;;
14736;SDS011;7459;53.590;10.062;2023-10-31T09:18:30;0.95;;;0.30;;
14736;SDS011;7459;53.590;10.062;2023-10-31T09:20:55;1.58;;;0.40;;
14736;SDS011;7459;53.590;10.062;2023-10-31T09:23:21;2.07;;;0.30;;
14736;SDS011;7459;53.590;10.062;2023-10-31T09:25:47;1.55;;;0.40;;
14736;SDS011;7459;53.590;10.062;2023-10-31T09:28:12;1.80;;;0.30;;
14736;SDS011;7459;53.590;10.062;2023-10-31T09:30:38;1.13;;;0.20;;
14736;SDS011;7459;53.590;10.062;2023-10-31T09:33:04;2.83;;;0.25;;
14736;SDS011;7459;53.590;10.062;2023-10-31T09:35:30;2.07;;;0.40;;
14736;SDS011;7459;53.590;10.062;2023-10-31T09:37:55;1.17;;;0.28;;
14736;SDS011;7459;53.590;10.062;2023-10-31T09:40:21;1.40;;;0.30;;
14736;SDS011;7459;53.590;10.062;2023-10-31T09:42:47;2.60;;;0.20;;
14736;SDS011;7459;53.590;10.062;2023-10-31T09:45:14;1.80;;;0.10;;
14736;SDS011;7459;53.590;10.062;2023-10-31T09:47:40;2.10;;;0.30;;
14736;SDS011;7459;53.590;10.062;2023-10-31T09:50:07;0.80;;;0.30;;
14736;SDS011;7459;53.590;10.062;2023-10-31T09:52:37;0.93;;;0.20;;
14736;SDS011;7459;53.590;10.062;2023-10-31T09:55:04;0.68;;;0.10;;
14736;SDS011;7459;53.590;10.062;2023-10-31T09:57:30;2.17;;;0.22;;
14736;SDS011;7459;53.590;10.062;2023-10-31T09:59:57;2.90;;;0.32;;
14736;SDS011;7459;53.590;10.062;2023-10-31T10:02:22;0.77;;;0.10;;
14736;SDS011;7459;53.590;10.062;2023-10-31T10:04:48;0.53;;;0.10;;
14736;SDS011;7459;53.590;10.062;2023-10-31T10:07:15;0.50;;;0.10;;
14736;SDS011;7459;53.590;10.062;2023-10-31T10:09:43;0.70;;;0.10;;
14736;SDS011;7459;53.590;10.062;2023-10-31T10:12:11;0.70;;;0.10;;
14736;SDS011;7459;53.590;10.062;2023-10-31T10:14:38;0.70;;;0.10;;
14736;SDS011;7459;53.590;10.062;2023-10-31T10:17:13;1.20;;;0.55;;
14736;SDS011;7459;53.590;10.062;2023-10-31T10:19:47;1.95;;;0.38;;
14736;SDS011;7459;53.590;10.062;2023-10-31T10:22:41;1.70;;;0.57;;
14736;SDS011;7459;53.590;10.062;2023-10-31T10:25:11;1.63;;;0.20;;
14736;SDS011;7459;53.590;10.062;2023-10-31T10:27:43;2.03;;;0.33;;
14736;SDS011;7459;53.590;10.062;2023-10-31T10:30:09;1.67;;;0.30;;
14736;SDS011;7459;53.590;10.062;2023-10-31T10:32:37;1.95;;;0.50;;
14736;SDS011;7459;53.590;10.062;2023-10-31T10:35:03;1.53;;;0.23;;
14736;SDS011;7459;53.590;10.062;2023-10-31T10:37:29;1.70;;;0.30;;
14736;SDS011;7459;53.590;10.062;2023-10-31T10:39:56;1.48;;;0.40;;
14736;SDS011;7459;53.590;10.062;2023-10-31T10:42:35;1.45;;;0.40;;
14736;SDS011;7459;53.590;10.062;2023-10-31T10:45:10;1.20;;;0.32;;
14736;SDS011;7459;53.590;10.062;2023-10-31T10:47:40;2.90;;;0.40;;
14736;SDS011;7459;53.590;10.062;2023-10-31T10:50:11;1.40;;;0.40;;
14736;SDS011;7459;53.590;10.062;2023-10-31T10:52:41;2.22;;;0.30;;
14736;SDS011;7459;53.590;10.062;2023-10-31T10:55:13;2.08;;;0.40;;
14736;SDS011;7459;53.590;10.062;2023-10-31T10:57:58;2.33;;;0.52;;
14736;SDS011;7459;53.590;10.062;2023-10-31T11:00:33;2.15;;;0.40;;
14736;SDS011;7459;53.590;10.062;2023-10-31T11:03:00;1.35;;;0.30;;
14736;SDS011;7459;53.590;10.062;2023-10-31T11:05:26;2.10;;;0.40;;
14736;SDS011;7459;53.590;10.062;2023-10-31T11:07:52;1.73;;;0.30;;
14736;SDS011;7459;53.590;10.062;2023-10-31T11:10:20;2.75;;;0.50;;
14736;SDS011;7459;53.590;10.062;2023-10-31T11:12:46;2.60;;;0.60;;
14736;SDS011;7459;53.590;10.062;2023-10-31T11:15:13;2.17;;;0.32;;
14736;SDS011;7459;53.590;10.062;2023-10-31T11:17:44;3.88;;;0.40;;
14736;SDS011;7459;53.590;10.062;2023-10-31T11:20:12;3.80;;;0.50;;
14736;SDS011;7459;53.590;10.062;2023-10-31T11:22:40;2.03;;;0.40;;
14736;SDS011;7459;53.590;10.062;2023-10-31T11:25:18;2.35;;;0.60;;
14736;SDS011;7459;53.590;10.062;2023-10-31T11:27:49;2.80;;;0.60;;
14736;SDS011;7459;53.590;10.062;2023-10-31T11:30:28;2.33;;;0.65;;
14736;SDS011;7459;53.590;10.062;2023-10-31T11:32:57;1.58;;;0.63;;
14736;SDS011;7459;53.590;10.062;2023-10-31T11:35:29;2.15;;;0.60;;
14736;SDS011;7459;53.590;10.062;2023-10-31T11:40:34;2.22;;;0.70;;
14736;SDS011;7459;53.590;10.062;2023-10-31T11:43:09;1.90;;;0.73;;
14736;SDS011;7459;53.590;10.062;2023-10-31T11:48:12;5.65;;;0.70;;
14736;SDS011;7459;53.590;10.062;2023-10-31T11:50:39;4.40;;;0.73;;
14736;SDS011;7459;53.590;10.062;2023-10-31T11:53:10;2.55;;;0.70;;
14736;SDS011;7459;53.590;10.062;2023-10-31T11:55:41;2.90;;;0.65;;
14736;SDS011;7459;53.590;10.062;2023-10-31T11:58:21;2.53;;;0.80;;
14736;SDS011;7459;53.590;10.062;2023-10-31T12:01:01;3.25;;;1.00;;
14736;SDS011;7459;53.590;10.062;2023-10-31T12:03:35;3.28;;;1.30;;
14736;SDS011;7459;53.590;10.062;2023-10-31T12:06:04;3.45;;;1.10;;
14736;SDS011;7459;53.590;10.062;2023-10-31T12:08:37;2.97;;;0.70;;
14736;SDS011;7459;53.590;10.062;2023-10-31T12:11:05;5.47;;;1.70;;
14736;SDS011;7459;53.590;10.062;2023-10-31T12:14:03;3.10;;;1.15;;
14736;SDS011;7459;53.590;10.062;2023-10-31T12:16:33;3.15;;;1.02;;
14736;SDS011;7459;53.590;10.062;2023-10-31T12:19:06;3.40;;;0.80;;
14736;SDS011;7459;53.590;10.062;2023-10-31T12:21:35;3.08;;;0.93;;
14736;SDS011;7459;53.590;10.062;2023-10-31T12:24:16;3.70;;;1.10;;
14736;SDS011;7459;53.590;10.062;2023-10-31T12:26:43;3.67;;;1.05;;
14736;SDS011;7459;53.590;10.062;2023-10-31T12:31:45;3.08;;;1.10;;
14736;SDS011;7459;53.590;10.062;2023-10-31T12:34:21;3.60;;;0.75;;
14736;SDS011;7459;53.590;10.062;2023-10-31T12:36:49;3.78;;;0.60;;
14736;SDS011;7459;53.590;10.062;2023-10-31T12:39:22;2.38;;;0.30;;
14736;SDS011;7459;53.590;10.062;2023-10-31T12:41:51;1.60;;;0.20;;
14736;SDS011;7459;53.590;10.062;2023-10-31T12:44:19;1.45;;;0.45;;
14736;SDS011;7459;53.590;10.062;2023-10-31T12:46:50;2.90;;;0.20;;
14736;SDS011;7459;53.590;10.062;2023-10-31T12:49:17;1.92;;;0.20;;
14736;SDS011;7459;53.590;10.062;2023-10-31T12:52:00;2.55;;;0.30;;
14736;SDS011;7459;53.590;10.062;2023-10-31T12:54:29;1.40;;;0.20;;
14736;SDS011;7459;53.590;10.062;2023-10-31T12:57:03;1.65;;;0.30;;
14736;SDS011;7459;53.590;10.062;2023-10-31T12:59:31;1.45;;;0.38;;
14736;SDS011;7459;53.590;10.062;2023-10-31T13:01:58;0.80;;;0.20;;
14736;SDS011;7459;53.590;10.062;2023-10-31T13:04:28;1.65;;;0.28;;
14736;SDS011;7459;53.590;10.062;2023-10-31T13:06:56;2.85;;;0.20;;
14736;SDS011;7459;53.590;10.062;2023-10-31T13:09:32;1.48;;;0.25;;
14736;SDS011;7459;53.590;10.062;2023-10-31T13:12:01;1.25;;;0.38;;
14736;SDS011;7459;53.590;10.062;2023-10-31T13:14:29;1.80;;;0.30;;
14736;SDS011;7459;53.590;10.062;2023-10-31T13:16:55;3.85;;;0.30;;
14736;SDS011;7459;53.590;10.062;2023-10-31T13:19:20;1.88;;;0.20;;
14736;SDS011;7459;53.590;10.062;2023-10-31T13:21:46;1.00;;;0.30;;
14736;SDS011;7459;53.590;10.062;2023-10-31T13:24:13;1.20;;;0.30;;
14736;SDS011;7459;53.590;10.062;2023-10-31T13:26:38;1.00;;;0.20;;
14736;SDS011;7459;53.590;10.062;2023-10-31T13:29:04;3.50;;;0.40;;
14736;SDS011;7459;53.590;10.062;2023-10-31T13:31:30;1.77;;;0.20;;
14736;SDS011;7459;53.590;10.062;2023-10-31T13:33:56;2.43;;;0.40;;
14736;SDS011;7459;53.590;10.062;2023-10-31T13:36:21;1.80;;;0.43;;
14736;SDS011;7459;53.590;10.062;2023-10-31T13:38:47;2.70;;;0.57;;
14736;SDS011;7459;53.590;10.062;2023-10-31T13:41:13;2.00;;;0.40;;
14736;SDS011;7459;53.590;10.062;2023-10-31T13:43:39;3.15;;;0.60;;
14736;SDS011;7459;53.590;10.062;2023-10-31T13:46:05;10.32;;;5.32;;
14736;SDS011;7459;53.590;10.062;2023-10-31T13:48:31;5.90;;;1.70;;
14736;SDS011;7459;53.590;10.062;2023-10-31T13:50:57;8.20;;;3.58;;
14736;SDS011;7459;53.590;10.062;2023-10-31T13:53:23;12.48;;;6.93;;
14736;SDS011;7459;53.590;10.062;2023-10-31T13:55:49;15.50;;;8.87;;
14736;SDS011;7459;53.590;10.062;2023-10-31T13:58:14;5.15;;;1.90;;
14736;SDS011;7459;53.590;10.062;2023-10-31T14:00:41;4.13;;;2.07;;
14736;SDS011;7459;53.590;10.062;2023-10-31T14:03:10;4.45;;;3.15;;
14736;SDS011;7459;53.590;10.062;2023-10-31T14:05:35;5.23;;;4.73;;
14736;SDS011;7459;53.590;10.062;2023-10-31T14:08:01;1.75;;;0.63;;
14736;SDS011;7459;53.590;10.062;2023-10-31T14:10:27;2.97;;;0.80;;
14736;SDS011;7459;53.590;10.062;2023-10-31T14:12:53;3.73;;;0.87;;
14736;SDS011;7459;53.590;10.062;2023-10-31T14:15:20;2.33;;;1.00;;
14736;SDS011;7459;53.590;10.062;2023-10-31T14:17:47;2.88;;;0.90;;
14736;SDS011;7459;53.590;10.062;2023-10-31T14:20:14;2.35;;;1.02;;
14736;SDS011;7459;53.590;10.062;2023-10-31T14:22:39;2.22;;;0.73;;
14736;SDS011;7459;53.590;10.062;2023-10-31T14:25:05;3.37;;;0.80;;
14736;SDS011;7459;53.590;10.062;2023-10-31T14:27:32;2.70;;;0.80;;
14736;SDS011;7459;53.590;10.062;2023-10-31T14:29:58;2.70;;;0.80;;
14736;SDS011;7459;53.590;10.062;2023-10-31T14:32:24;2.65;;;0.55;;
14736;SDS011;7459;53.590;10.062;2023-10-31T14:34:50;1.60;;;0.30;;
14736;SDS011;7459;53.590;10.062;2023-10-31T14:37:16;2.33;;;0.90;;
14736;SDS011;7459;53.590;10.062;2023-10-31T14:39:41;2.80;;;0.87;;
14736;SDS011;7459;53.590;10.062;2023-10-31T14:42:08;4.22;;;1.20;;
14736;SDS011;7459;53.590;10.062;2023-10-31T14:44:33;3.33;;;1.40;;
14736;SDS011;7459;53.590;10.062;2023-10-31T14:46:59;3.13;;;1.15;;
14736;SDS011;7459;53.590;10.062;2023-10-31T14:49:25;2.90;;;1.30;;
14736;SDS011;7459;53.590;10.062;2023-10-31T14:51:50;3.15;;;1.85;;